Newry, Minnesota
Current Conditions -  °F | °C
As of 6:14 PM on Friday 21 Nov 2014 (Local Time) from KTOB Reporting Station
Clear Clear  
Wind Chill: 12°   Ceiling: Unl
Heat Index: 27°   Visibility: 10mi
Dew Point: 21°   Wind: 22mph
Humidity: 80%   Direction: 180°S
Pressure: 30"   Gusts: 29mph
Location:  43.9356°N, 93.0454°W
Report Text: KTOB 220014Z AUTO 18019G25KT 10SM CLR M03/M06 A3000 RMK AO2
Loading
Personal Weather Stations






























Interactive Weather Map New forecast layout! Learn more

10-Day Weather Forecast

Advertisements
Track Severe Weather on mobile